Time;durP1;ratioP1;P1;durP2;ratioP2;P2;SDS_P1;SDS_P2;PMS_P1;PMS_P2;Temp;Humidity;BMP_temperature;BMP_pressure;BME280_temperature;BME280_humidity;BME280_pressure;Samples;Min_cycle;Max_cycle;Signal;HPM_P1;HPM_P2
2021/03/06 12:13:15;;;;;;;23.90;23.20;;;;;;;;;;5131691;27;20534;-68
2021/03/06 12:15:41;;;;;;;25.60;24.80;;;;;;;;;;5131802;28;20662;-69
2021/03/06 12:18:10;;;;;;;25.38;24.58;;;;;;;;;;5130260;28;20209;-69
2021/03/06 12:20:36;;;;;;;25.73;24.90;;;;;;;;;;5131071;28;20166;-69
2021/03/06 12:23:02;;;;;;;25.23;24.42;;;;;;;;;;5131249;28;20241;-69
2021/03/06 12:25:28;;;;;;;25.92;25.13;;;;;;;;;;5131245;28;20699;-70
2021/03/06 12:27:54;;;;;;;27.08;26.17;;;;;;;;;;5131532;28;20166;-69
2021/03/06 12:30:21;;;;;;;26.90;26.00;;;;;;;;;;5131334;28;20681;-69
2021/03/06 12:32:48;;;;;;;25.92;24.83;;;;;;;;;;5131328;28;20201;-70
2021/03/06 12:35:15;;;;;;;25.77;24.98;;;;;;;;;;5131315;28;20159;-70
2021/03/06 12:37:41;;;;;;;27.23;26.35;;;;;;;;;;5129147;28;20186;-70
2021/03/06 12:40:07;;;;;;;27.02;26.13;;;;;;;;;;5131198;28;20620;-70
2021/03/06 12:42:34;;;;;;;27.42;26.52;;;;;;;;;;5131112;28;20628;-68
2021/03/06 12:45:00;;;;;;;28.10;27.20;;;;;;;;;;5131043;28;20163;-69
2021/03/06 12:47:26;;;;;;;28.30;27.40;;;;;;;;;;5130880;28;20651;-68
2021/03/06 12:49:52;;;;;;;28.25;27.35;;;;;;;;;;5130909;28;20235;-69
2021/03/06 12:52:18;;;;;;;27.83;26.92;;;;;;;;;;5129599;28;20292;-69
2021/03/06 12:54:44;;;;;;;29.33;28.23;;;;;;;;;;5130833;28;20167;-69
2021/03/06 12:57:10;;;;;;;28.60;27.50;;;;;;;;;;5130783;28;20568;-69
2021/03/06 12:59:36;;;;;;;30.55;29.40;;;;;;;;;;5129532;28;20209;-69
2021/03/06 13:02:02;;;;;;;28.90;27.90;;;;;;;;;;5130653;28;20198;-70
2021/03/06 13:04:31;;;;;;;30.08;29.08;;;;;;;;;;5130651;28;20235;-70
2021/03/06 13:06:57;;;;;;;30.02;29.02;;;;;;;;;;5129427;28;20574;-70
2021/03/06 13:09:23;;;;;;;30.13;29.02;;;;;;;;;;5130678;28;20171;-70
2021/03/06 13:11:49;;;;;;;28.83;27.83;;;;;;;;;;5130397;28;20234;-70
2021/03/06 13:14:16;;;;;;;29.95;28.95;;;;;;;;;;5129289;28;20258;-71
2021/03/06 13:16:42;;;;;;;29.85;28.75;;;;;;;;;;5130465;28;20166;-71
2021/03/06 13:19:08;;;;;;;29.67;28.67;;;;;;;;;;5129110;28;20174;-71
2021/03/06 13:21:37;;;;;;;30.85;29.75;;;;;;;;;;5130405;28;20635;-72
2021/03/06 13:24:03;;;;;;;30.67;29.60;;;;;;;;;;5120026;28;20174;-71
2021/03/06 13:26:29;;;;;;;33.83;32.63;;;;;;;;;;5116513;28;20679;-73
2021/03/06 13:28:55;;;;;;;32.75;31.55;;;;;;;;;;5116647;28;20213;-72
2021/03/06 13:31:26;;;;;;;32.72;31.52;;;;;;;;;;5116566;28;20281;-73
2021/03/06 13:33:52;;;;;;;30.95;29.85;;;;;;;;;;5115258;28;20179;-73
2021/03/06 13:36:18;;;;;;;31.35;30.25;;;;;;;;;;5115281;28;20262;-73
2021/03/06 13:38:44;;;;;;;32.67;31.38;;;;;;;;;;5115153;28;20175;-70
2021/03/06 13:41:10;;;;;;;33.33;31.92;;;;;;;;;;5115128;28;20210;-70
2021/03/06 13:43:36;;;;;;;31.73;30.63;;;;;;;;;;5116380;28;20195;-70
2021/03/06 13:46:02;;;;;;;34.70;33.40;;;;;;;;;;5114962;28;20201;-70
2021/03/06 13:48:28;;;;;;;33.22;32.03;;;;;;;;;;5116237;28;20214;-70
2021/03/06 13:50:55;;;;;;;34.85;33.13;;;;;;;;;;5114846;28;20171;-71
2021/03/06 13:53:21;;;;;;;33.38;32.17;;;;;;;;;;5116044;28;20166;-70
2021/03/06 13:55:47;;;;;;;31.50;30.40;;;;;;;;;;5116067;28;20193;-70
2021/03/06 13:58:13;;;;;;;33.38;32.17;;;;;;;;;;5114559;28;20177;-70
2021/03/06 14:00:39;;;;;;;30.98;29.88;;;;;;;;;;5115977;28;20250;-70
2021/03/06 14:03:05;;;;;;;31.35;30.25;;;;;;;;;;5115836;28;20206;-70
2021/03/06 14:05:31;;;;;;;31.70;30.60;;;;;;;;;;5115937;28;20212;-71
2021/03/06 14:08:07;;;;;;;30.13;29.13;;;;;;;;;;5116678;28;20167;-74
2021/03/06 14:10:33;;;;;;;32.35;31.17;;;;;;;;;;5115213;28;20568;-73
2021/03/06 14:12:59;;;;;;;30.67;29.60;;;;;;;;;;5116099;28;20226;-73
2021/03/06 14:15:25;;;;;;;31.67;30.50;;;;;;;;;;5115898;28;20171;-73
2021/03/06 14:17:51;;;;;;;30.95;29.85;;;;;;;;;;5114908;28;20565;-73
2021/03/06 14:20:17;;;;;;;31.55;30.45;;;;;;;;;;5115962;28;20305;-73
2021/03/06 14:22:44;;;;;;;33.53;32.30;;;;;;;;;;5114511;28;20556;-73
2021/03/06 14:25:10;;;;;;;31.98;30.83;;;;;;;;;;5116032;28;20159;-73
2021/03/06 14:27:36;;;;;;;30.42;29.40;;;;;;;;;;5115833;28;20200;-73
2021/03/06 14:30:03;;;;;;;30.17;29.00;;;;;;;;;;5115383;28;20224;-73
2021/03/06 14:32:29;;;;;;;30.90;29.83;;;;;;;;;;5115544;28;20182;-73
2021/03/06 14:34:55;;;;;;;29.95;28.95;;;;;;;;;;5114473;28;20175;-73
2021/03/06 14:37:21;;;;;;;31.13;30.02;;;;;;;;;;5115390;28;20250;-73
2021/03/06 14:39:48;;;;;;;31.58;30.48;;;;;;;;;;5115228;28;20579;-72
2021/03/06 14:42:14;;;;;;;30.92;29.85;;;;;;;;;;5115199;28;20195;-73
2021/03/06 14:44:40;;;;;;;30.98;29.90;;;;;;;;;;5115176;28;20190;-73
2021/03/06 14:47:08;;;;;;;32.55;31.30;;;;;;;;;;5115194;28;20167;-74
2021/03/06 14:49:35;;;;;;;31.77;30.63;;;;;;;;;;5115117;28;20167;-73
2021/03/06 14:52:01;;;;;;;31.67;30.27;;;;;;;;;;5113933;28;20171;-73
2021/03/06 14:54:27;;;;;;;31.13;30.02;;;;;;;;;;5115203;28;20166;-74
2021/03/06 14:59:59;;;;;;;30.77;29.67;;;;;;;;;;5122666;28;20177;-74
2021/03/06 15:02:25;;;;;;;30.00;29.00;;;;;;;;;;5115968;28;20195;-74
2021/03/06 15:04:51;;;;;;;31.33;30.23;;;;;;;;;;5113941;28;20163;-73
2021/03/06 15:07:17;;;;;;;32.67;30.92;;;;;;;;;;5115078;28;20167;-73
2021/03/06 15:09:44;;;;;;;32.13;30.95;;;;;;;;;;5115929;28;20250;-72
2021/03/06 15:12:10;;;;;;;31.98;30.83;;;;;;;;;;5120663;28;20218;-73
2021/03/06 15:14:36;;;;;;;35.22;33.63;;;;;;;;;;5115798;28;20246;-73
2021/03/06 15:17:20;;;;;;;32.75;31.60;;;;;;;;;;5116277;28;20220;-74
2021/03/06 15:19:53;;;;;;;32.30;31.10;;;;;;;;;;5121839;28;20147;-74
2021/03/06 15:22:22;;;;;;;32.15;30.95;;;;;;;;;;5120294;28;20656;-74
2021/03/06 15:24:48;;;;;;;33.15;31.95;;;;;;;;;;5122123;28;20299;-73
2021/03/06 15:27:14;;;;;;;32.78;31.58;;;;;;;;;;5116420;28;20654;-74
2021/03/06 15:29:51;;;;;;;32.70;31.55;;;;;;;;;;5117892;28;20202;-74
2021/03/06 15:32:20;;;;;;;32.40;31.23;;;;;;;;;;5114263;28;20181;-73
2021/03/06 15:34:47;;;;;;;33.28;32.08;;;;;;;;;;5114748;28;20608;-73
2021/03/06 15:37:13;;;;;;;33.13;31.92;;;;;;;;;;5115484;28;20517;-74
2021/03/06 15:39:39;;;;;;;33.53;32.22;;;;;;;;;;5117152;28;20199;-74
2021/03/06 15:42:06;;;;;;;34.80;33.53;;;;;;;;;;5122305;28;20194;-73
2021/03/06 15:44:32;;;;;;;33.42;32.03;;;;;;;;;;5113904;28;20173;-73
2021/03/06 15:46:58;;;;;;;33.72;32.33;;;;;;;;;;5114476;28;20624;-73
2021/03/06 15:49:25;;;;;;;31.38;30.30;;;;;;;;;;5117457;28;20191;-73
2021/03/06 15:51:56;;;;;;;31.55;30.45;;;;;;;;;;5116668;28;20171;-74
2021/03/06 15:54:23;;;;;;;31.55;30.45;;;;;;;;;;5114402;28;20499;-73
2021/03/06 15:57:11;;;;;;;32.95;31.75;;;;;;;;;;5116497;28;20171;-73
2021/03/06 15:59:37;;;;;;;31.67;30.58;;;;;;;;;;5121586;28;20171;-73
2021/03/06 16:02:03;;;;;;;31.33;30.23;;;;;;;;;;5117889;28;20199;-74
2021/03/06 16:04:29;;;;;;;32.50;31.35;;;;;;;;;;5119222;28;20182;-72
2021/03/06 16:06:55;;;;;;;30.85;29.77;;;;;;;;;;5113907;28;20167;-74
2021/03/06 16:09:21;;;;;;;33.67;31.95;;;;;;;;;;5113975;28;20518;-73
2021/03/06 16:11:47;;;;;;;31.92;30.83;;;;;;;;;;5113474;28;20229;-73
2021/03/06 16:14:13;;;;;;;30.85;29.75;;;;;;;;;;5112387;28;20167;-74
2021/03/06 16:16:39;;;;;;;32.47;31.27;;;;;;;;;;5113744;28;20228;-73
2021/03/06 16:19:05;;;;;;;34.17;32.67;;;;;;;;;;5112721;28;20175;-75
2021/03/06 16:21:31;;;;;;;31.10;30.00;;;;;;;;;;5113728;28;20596;-75
2021/03/06 16:23:57;;;;;;;30.63;29.42;;;;;;;;;;5112368;28;20266;-74
2021/03/06 16:26:23;;;;;;;30.17;29.05;;;;;;;;;;5112254;28;20253;-75
2021/03/06 16:28:49;;;;;;;32.80;31.50;;;;;;;;;;5113480;28;20255;-75
2021/03/06 16:31:15;;;;;;;31.20;30.08;;;;;;;;;;5113406;28;20163;-75
2021/03/06 16:33:41;;;;;;;32.47;31.27;;;;;;;;;;5113312;28;20212;-75
2021/03/06 16:36:07;;;;;;;29.13;28.13;;;;;;;;;;5113674;28;20639;-74
2021/03/06 16:38:33;;;;;;;29.38;28.25;;;;;;;;;;5112276;28;20262;-74
2021/03/06 16:40:59;;;;;;;28.77;27.77;;;;;;;;;;5113177;28;20193;-74
2021/03/06 16:43:26;;;;;;;29.00;28.00;;;;;;;;;;5113437;28;20198;-74
2021/03/06 16:45:52;;;;;;;30.00;28.90;;;;;;;;;;5113323;28;20252;-74
2021/03/06 16:48:19;;;;;;;29.13;27.90;;;;;;;;;;5112131;28;20175;-74
2021/03/06 16:50:48;;;;;;;29.38;28.38;;;;;;;;;;5112191;28;20178;-74
2021/03/06 16:53:18;;;;;;;30.40;29.35;;;;;;;;;;5111472;28;20186;-73
2021/03/06 16:55:44;;;;;;;29.17;28.13;;;;;;;;;;5113399;28;20633;-73
2021/03/06 16:58:11;;;;;;;30.38;29.17;;;;;;;;;;5112788;28;20182;-75
